sensor_id;sensor_type;location;lat;lon;timestamp;P1;durP1;ratioP1;P2;durP2;ratioP2
32780;SDS011;19136;47.032;15.502;2024-01-25T00:01:26;13.80;;;4.20;;
32780;SDS011;19136;47.032;15.502;2024-01-25T00:03:52;10.32;;;2.88;;
32780;SDS011;19136;47.032;15.502;2024-01-25T00:06:17;7.35;;;2.95;;
32780;SDS011;19136;47.032;15.502;2024-01-25T00:08:42;10.25;;;3.80;;
32780;SDS011;19136;47.032;15.502;2024-01-25T00:11:08;15.70;;;4.95;;
32780;SDS011;19136;47.032;15.502;2024-01-25T00:13:34;12.65;;;4.35;;
32780;SDS011;19136;47.032;15.502;2024-01-25T00:16:00;14.48;;;4.68;;
32780;SDS011;19136;47.032;15.502;2024-01-25T00:18:25;8.70;;;4.22;;
32780;SDS011;19136;47.032;15.502;2024-01-25T00:20:51;9.80;;;3.88;;
32780;SDS011;19136;47.032;15.502;2024-01-25T00:23:17;14.95;;;4.30;;
32780;SDS011;19136;47.032;15.502;2024-01-25T00:25:42;9.93;;;3.75;;
32780;SDS011;19136;47.032;15.502;2024-01-25T00:28:08;5.60;;;2.47;;
32780;SDS011;19136;47.032;15.502;2024-01-25T00:30:33;14.55;;;2.15;;
32780;SDS011;19136;47.032;15.502;2024-01-25T00:32:59;3.45;;;1.30;;
32780;SDS011;19136;47.032;15.502;2024-01-25T00:35:26;4.63;;;1.00;;
32780;SDS011;19136;47.032;15.502;2024-01-25T00:37:51;2.55;;;0.88;;
32780;SDS011;19136;47.032;15.502;2024-01-25T00:40:17;5.05;;;1.10;;
32780;SDS011;19136;47.032;15.502;2024-01-25T00:42:46;8.05;;;1.25;;
32780;SDS011;19136;47.032;15.502;2024-01-25T00:45:18;3.72;;;0.60;;
32780;SDS011;19136;47.032;15.502;2024-01-25T00:47:44;3.20;;;0.80;;
32780;SDS011;19136;47.032;15.502;2024-01-25T00:50:09;5.82;;;0.90;;
32780;SDS011;19136;47.032;15.502;2024-01-25T00:52:35;10.13;;;2.72;;
32780;SDS011;19136;47.032;15.502;2024-01-25T00:55:01;9.07;;;1.20;;
32780;SDS011;19136;47.032;15.502;2024-01-25T00:57:26;2.83;;;0.65;;
32780;SDS011;19136;47.032;15.502;2024-01-25T00:59:52;2.97;;;0.70;;
32780;SDS011;19136;47.032;15.502;2024-01-25T01:02:17;4.18;;;0.80;;
32780;SDS011;19136;47.032;15.502;2024-01-25T01:04:45;6.10;;;1.10;;
32780;SDS011;19136;47.032;15.502;2024-01-25T01:07:10;4.75;;;0.88;;
32780;SDS011;19136;47.032;15.502;2024-01-25T01:09:36;7.90;;;1.42;;
32780;SDS011;19136;47.032;15.502;2024-01-25T01:12:01;5.93;;;0.90;;
32780;SDS011;19136;47.032;15.502;2024-01-25T01:14:27;6.60;;;1.05;;
32780;SDS011;19136;47.032;15.502;2024-01-25T01:16:52;4.60;;;0.88;;
32780;SDS011;19136;47.032;15.502;2024-01-25T01:19:18;7.05;;;1.05;;
32780;SDS011;19136;47.032;15.502;2024-01-25T01:21:44;3.88;;;0.98;;
32780;SDS011;19136;47.032;15.502;2024-01-25T01:24:10;2.97;;;0.63;;
32780;SDS011;19136;47.032;15.502;2024-01-25T01:26:36;6.60;;;0.70;;
32780;SDS011;19136;47.032;15.502;2024-01-25T01:29:02;5.03;;;0.88;;
32780;SDS011;19136;47.032;15.502;2024-01-25T01:31:27;5.80;;;0.88;;
32780;SDS011;19136;47.032;15.502;2024-01-25T01:33:53;3.97;;;1.20;;
32780;SDS011;19136;47.032;15.502;2024-01-25T01:36:19;2.35;;;0.57;;
32780;SDS011;19136;47.032;15.502;2024-01-25T01:38:45;4.45;;;0.85;;
32780;SDS011;19136;47.032;15.502;2024-01-25T01:41:11;3.05;;;0.90;;
32780;SDS011;19136;47.032;15.502;2024-01-25T01:43:39;7.88;;;0.90;;
32780;SDS011;19136;47.032;15.502;2024-01-25T01:46:50;5.03;;;0.95;;
32780;SDS011;19136;47.032;15.502;2024-01-25T01:48:50;5.60;;;0.80;;
32780;SDS011;19136;47.032;15.502;2024-01-25T01:51:16;6.20;;;0.85;;
32780;SDS011;19136;47.032;15.502;2024-01-25T01:53:41;7.15;;;1.33;;
32780;SDS011;19136;47.032;15.502;2024-01-25T01:56:07;5.15;;;0.88;;
32780;SDS011;19136;47.032;15.502;2024-01-25T01:58:32;2.42;;;0.70;;
32780;SDS011;19136;47.032;15.502;2024-01-25T02:00:59;3.05;;;0.73;;
32780;SDS011;19136;47.032;15.502;2024-01-25T02:03:25;6.65;;;0.95;;
32780;SDS011;19136;47.032;15.502;2024-01-25T02:05:50;4.03;;;0.77;;
32780;SDS011;19136;47.032;15.502;2024-01-25T02:08:16;4.60;;;0.90;;
32780;SDS011;19136;47.032;15.502;2024-01-25T02:10:41;7.80;;;1.27;;
32780;SDS011;19136;47.032;15.502;2024-01-25T02:13:08;7.22;;;0.88;;
32780;SDS011;19136;47.032;15.502;2024-01-25T02:15:33;3.25;;;0.70;;
32780;SDS011;19136;47.032;15.502;2024-01-25T02:17:59;5.88;;;1.30;;
32780;SDS011;19136;47.032;15.502;2024-01-25T02:20:24;8.75;;;2.50;;
32780;SDS011;19136;47.032;15.502;2024-01-25T02:22:50;4.57;;;1.30;;
32780;SDS011;19136;47.032;15.502;2024-01-25T02:25:15;4.80;;;1.20;;
32780;SDS011;19136;47.032;15.502;2024-01-25T02:27:41;3.10;;;1.10;;
32780;SDS011;19136;47.032;15.502;2024-01-25T02:30:08;3.90;;;1.00;;
32780;SDS011;19136;47.032;15.502;2024-01-25T02:32:34;4.35;;;1.40;;
32780;SDS011;19136;47.032;15.502;2024-01-25T02:34:59;3.83;;;0.98;;
32780;SDS011;19136;47.032;15.502;2024-01-25T02:37:25;7.43;;;1.20;;
32780;SDS011;19136;47.032;15.502;2024-01-25T02:39:51;5.90;;;1.15;;
32780;SDS011;19136;47.032;15.502;2024-01-25T02:42:16;4.40;;;1.30;;
32780;SDS011;19136;47.032;15.502;2024-01-25T02:44:42;6.97;;;1.40;;
32780;SDS011;19136;47.032;15.502;2024-01-25T02:47:08;7.35;;;1.30;;
32780;SDS011;19136;47.032;15.502;2024-01-25T02:49:36;5.60;;;1.35;;
32780;SDS011;19136;47.032;15.502;2024-01-25T02:52:02;8.32;;;1.80;;
32780;SDS011;19136;47.032;15.502;2024-01-25T02:54:27;8.07;;;1.70;;
32780;SDS011;19136;47.032;15.502;2024-01-25T02:56:53;7.32;;;1.73;;
32780;SDS011;19136;47.032;15.502;2024-01-25T02:59:18;6.82;;;1.50;;
32780;SDS011;19136;47.032;15.502;2024-01-25T03:01:45;3.75;;;1.58;;
32780;SDS011;19136;47.032;15.502;2024-01-25T03:04:11;3.72;;;1.48;;
32780;SDS011;19136;47.032;15.502;2024-01-25T03:06:36;4.28;;;1.33;;
32780;SDS011;19136;47.032;15.502;2024-01-25T03:09:02;5.18;;;1.77;;
32780;SDS011;19136;47.032;15.502;2024-01-25T03:11:34;7.30;;;1.42;;
32780;SDS011;19136;47.032;15.502;2024-01-25T03:13:59;14.45;;;3.15;;
32780;SDS011;19136;47.032;15.502;2024-01-25T03:16:25;10.55;;;3.30;;
32780;SDS011;19136;47.032;15.502;2024-01-25T03:18:50;9.07;;;2.20;;
32780;SDS011;19136;47.032;15.502;2024-01-25T03:21:16;6.10;;;1.92;;
32780;SDS011;19136;47.032;15.502;2024-01-25T03:23:41;7.03;;;2.00;;
32780;SDS011;19136;47.032;15.502;2024-01-25T03:26:07;6.55;;;1.63;;
32780;SDS011;19136;47.032;15.502;2024-01-25T03:28:35;7.60;;;1.95;;
32780;SDS011;19136;47.032;15.502;2024-01-25T03:31:01;5.20;;;1.80;;
32780;SDS011;19136;47.032;15.502;2024-01-25T03:33:26;5.43;;;1.60;;
32780;SDS011;19136;47.032;15.502;2024-01-25T03:35:53;7.95;;;1.40;;
32780;SDS011;19136;47.032;15.502;2024-01-25T03:38:19;4.13;;;1.48;;
32780;SDS011;19136;47.032;15.502;2024-01-25T03:40:44;4.72;;;1.13;;
32780;SDS011;19136;47.032;15.502;2024-01-25T03:43:10;6.93;;;1.30;;
32780;SDS011;19136;47.032;15.502;2024-01-25T03:45:38;2.90;;;0.85;;
32780;SDS011;19136;47.032;15.502;2024-01-25T03:48:03;3.63;;;0.90;;
32780;SDS011;19136;47.032;15.502;2024-01-25T03:50:29;7.82;;;0.70;;
32780;SDS011;19136;47.032;15.502;2024-01-25T03:52:54;4.20;;;1.58;;
32780;SDS011;19136;47.032;15.502;2024-01-25T03:55:20;6.88;;;0.55;;
32780;SDS011;19136;47.032;15.502;2024-01-25T03:57:45;5.07;;;1.02;;
32780;SDS011;19136;47.032;15.502;2024-01-25T04:00:11;4.30;;;1.00;;
32780;SDS011;19136;47.032;15.502;2024-01-25T04:02:37;6.82;;;0.98;;
32780;SDS011;19136;47.032;15.502;2024-01-25T04:05:02;3.92;;;1.10;;
32780;SDS011;19136;47.032;15.502;2024-01-25T04:07:28;5.43;;;0.70;;
32780;SDS011;19136;47.032;15.502;2024-01-25T04:09:55;4.50;;;1.08;;
32780;SDS011;19136;47.032;15.502;2024-01-25T04:12:20;8.07;;;1.00;;
32780;SDS011;19136;47.032;15.502;2024-01-25T04:14:46;7.10;;;1.30;;
32780;SDS011;19136;47.032;15.502;2024-01-25T04:17:11;3.05;;;0.88;;
32780;SDS011;19136;47.032;15.502;2024-01-25T04:19:38;8.50;;;0.93;;
32780;SDS011;19136;47.032;15.502;2024-01-25T04:22:04;2.88;;;0.80;;
32780;SDS011;19136;47.032;15.502;2024-01-25T04:24:29;3.70;;;0.90;;
32780;SDS011;19136;47.032;15.502;2024-01-25T04:26:55;4.15;;;0.73;;
32780;SDS011;19136;47.032;15.502;2024-01-25T04:29:20;8.27;;;1.40;;
32780;SDS011;19136;47.032;15.502;2024-01-25T04:31:46;4.15;;;0.60;;
32780;SDS011;19136;47.032;15.502;2024-01-25T04:34:13;5.15;;;0.50;;
32780;SDS011;19136;47.032;15.502;2024-01-25T04:36:39;4.47;;;0.65;;
32780;SDS011;19136;47.032;15.502;2024-01-25T04:39:04;4.25;;;0.73;;
32780;SDS011;19136;47.032;15.502;2024-01-25T04:41:33;1.90;;;0.57;;
32780;SDS011;19136;47.032;15.502;2024-01-25T04:43:59;4.45;;;1.10;;
32780;SDS011;19136;47.032;15.502;2024-01-25T04:46:24;6.60;;;0.85;;
32780;SDS011;19136;47.032;15.502;2024-01-25T04:48:50;2.75;;;0.90;;
32780;SDS011;19136;47.032;15.502;2024-01-25T04:51:16;4.00;;;0.70;;
32780;SDS011;19136;47.032;15.502;2024-01-25T04:53:42;8.68;;;0.90;;
32780;SDS011;19136;47.032;15.502;2024-01-25T04:56:07;4.40;;;0.70;;
32780;SDS011;19136;47.032;15.502;2024-01-25T04:58:33;6.20;;;1.52;;
32780;SDS011;19136;47.032;15.502;2024-01-25T05:00:58;6.13;;;0.60;;
32780;SDS011;19136;47.032;15.502;2024-01-25T05:03:25;7.00;;;0.73;;
32780;SDS011;19136;47.032;15.502;2024-01-25T05:05:50;3.75;;;0.85;;
32780;SDS011;19136;47.032;15.502;2024-01-25T05:08:16;5.55;;;1.02;;
32780;SDS011;19136;47.032;15.502;2024-01-25T05:10:41;4.38;;;0.98;;
32780;SDS011;19136;47.032;15.502;2024-01-25T05:13:07;7.43;;;0.80;;
32780;SDS011;19136;47.032;15.502;2024-01-25T05:15:32;7.68;;;1.10;;
32780;SDS011;19136;47.032;15.502;2024-01-25T05:17:58;6.25;;;1.20;;
32780;SDS011;19136;47.032;15.502;2024-01-25T05:20:23;5.95;;;1.30;;
32780;SDS011;19136;47.032;15.502;2024-01-25T05:22:53;8.30;;;2.17;;
32780;SDS011;19136;47.032;15.502;2024-01-25T05:25:19;6.20;;;0.95;;
32780;SDS011;19136;47.032;15.502;2024-01-25T05:27:44;7.53;;;1.35;;
32780;SDS011;19136;47.032;15.502;2024-01-25T05:30:12;8.02;;;1.33;;
32780;SDS011;19136;47.032;15.502;2024-01-25T05:32:38;4.85;;;1.00;;
32780;SDS011;19136;47.032;15.502;2024-01-25T05:35:04;3.38;;;0.80;;
32780;SDS011;19136;47.032;15.502;2024-01-25T05:37:30;8.05;;;1.30;;
32780;SDS011;19136;47.032;15.502;2024-01-25T05:39:55;6.35;;;1.30;;
32780;SDS011;19136;47.032;15.502;2024-01-25T05:42:22;6.32;;;1.88;;
32780;SDS011;19136;47.032;15.502;2024-01-25T05:44:47;4.03;;;1.20;;
32780;SDS011;19136;47.032;15.502;2024-01-25T05:47:13;7.10;;;0.80;;
32780;SDS011;19136;47.032;15.502;2024-01-25T05:49:39;11.45;;;1.23;;
32780;SDS011;19136;47.032;15.502;2024-01-25T05:52:05;8.95;;;2.38;;
32780;SDS011;19136;47.032;15.502;2024-01-25T05:54:30;10.10;;;2.40;;
32780;SDS011;19136;47.032;15.502;2024-01-25T05:56:56;4.63;;;1.52;;
32780;SDS011;19136;47.032;15.502;2024-01-25T05:59:21;11.38;;;1.25;;
32780;SDS011;19136;47.032;15.502;2024-01-25T06:01:47;5.82;;;1.15;;
32780;SDS011;19136;47.032;15.502;2024-01-25T06:04:12;10.32;;;1.27;;
32780;SDS011;19136;47.032;15.502;2024-01-25T06:06:38;9.25;;;1.13;;
32780;SDS011;19136;47.032;15.502;2024-01-25T06:09:03;7.47;;;2.50;;
32780;SDS011;19136;47.032;15.502;2024-01-25T06:11:30;9.93;;;1.50;;
32780;SDS011;19136;47.032;15.502;2024-01-25T06:13:58;3.50;;;0.75;;
32780;SDS011;19136;47.032;15.502;2024-01-25T06:16:23;6.25;;;1.02;;
32780;SDS011;19136;47.032;15.502;2024-01-25T06:18:49;4.15;;;1.15;;
32780;SDS011;19136;47.032;15.502;2024-01-25T06:21:14;2.50;;;0.80;;
32780;SDS011;19136;47.032;15.502;2024-01-25T06:23:40;8.07;;;0.93;;
32780;SDS011;19136;47.032;15.502;2024-01-25T06:26:05;7.45;;;1.23;;
32780;SDS011;19136;47.032;15.502;2024-01-25T06:28:31;3.47;;;0.80;;
32780;SDS011;19136;47.032;15.502;2024-01-25T06:30:56;3.80;;;0.80;;
32780;SDS011;19136;47.032;15.502;2024-01-25T06:33:22;3.35;;;0.55;;
32780;SDS011;19136;47.032;15.502;2024-01-25T06:35:47;4.32;;;0.88;;
32780;SDS011;19136;47.032;15.502;2024-01-25T06:38:13;5.60;;;0.98;;
32780;SDS011;19136;47.032;15.502;2024-01-25T06:40:38;5.28;;;0.75;;
32780;SDS011;19136;47.032;15.502;2024-01-25T06:43:04;4.90;;;1.02;;
32780;SDS011;19136;47.032;15.502;2024-01-25T06:45:29;4.47;;;0.88;;
32780;SDS011;19136;47.032;15.502;2024-01-25T06:47:55;3.28;;;0.73;;
32780;SDS011;19136;47.032;15.502;2024-01-25T06:50:21;5.68;;;1.20;;
32780;SDS011;19136;47.032;15.502;2024-01-25T06:52:47;4.85;;;0.75;;
32780;SDS011;19136;47.032;15.502;2024-01-25T06:55:13;7.47;;;0.98;;
32780;SDS011;19136;47.032;15.502;2024-01-25T06:57:38;5.80;;;1.40;;
32780;SDS011;19136;47.032;15.502;2024-01-25T07:00:05;2.47;;;0.57;;
32780;SDS011;19136;47.032;15.502;2024-01-25T07:02:31;3.10;;;0.63;;
32780;SDS011;19136;47.032;15.502;2024-01-25T07:04:57;3.20;;;0.70;;
32780;SDS011;19136;47.032;15.502;2024-01-25T07:07:22;4.05;;;0.82;;
32780;SDS011;19136;47.032;15.502;2024-01-25T07:09:47;2.80;;;1.13;;
32780;SDS011;19136;47.032;15.502;2024-01-25T07:12:13;6.28;;;1.60;;
32780;SDS011;19136;47.032;15.502;2024-01-25T07:14:38;6.07;;;1.30;;
32780;SDS011;19136;47.032;15.502;2024-01-25T07:17:04;3.95;;;0.98;;
32780;SDS011;19136;47.032;15.502;2024-01-25T07:19:29;3.65;;;1.17;;
32780;SDS011;19136;47.032;15.502;2024-01-25T07:21:55;3.25;;;0.88;;
32780;SDS011;19136;47.032;15.502;2024-01-25T07:24:20;3.42;;;1.10;;
32780;SDS011;19136;47.032;15.502;2024-01-25T07:26:45;3.88;;;0.60;;
32780;SDS011;19136;47.032;15.502;2024-01-25T07:29:11;4.30;;;1.17;;
32780;SDS011;19136;47.032;15.502;2024-01-25T07:31:36;3.80;;;0.70;;
32780;SDS011;19136;47.032;15.502;2024-01-25T07:34:02;4.15;;;1.35;;
32780;SDS011;19136;47.032;15.502;2024-01-25T07:36:28;2.42;;;0.70;;
32780;SDS011;19136;47.032;15.502;2024-01-25T07:38:56;6.55;;;0.80;;
32780;SDS011;19136;47.032;15.502;2024-01-25T07:41:22;3.42;;;0.80;;
32780;SDS011;19136;47.032;15.502;2024-01-25T07:43:47;4.30;;;0.52;;
32780;SDS011;19136;47.032;15.502;2024-01-25T07:46:13;1.88;;;0.70;;
32780;SDS011;19136;47.032;15.502;2024-01-25T07:48:40;2.42;;;0.85;;
32780;SDS011;19136;47.032;15.502;2024-01-25T07:51:12;3.55;;;1.17;;
32780;SDS011;19136;47.032;15.502;2024-01-25T07:53:39;3.90;;;0.88;;
32780;SDS011;19136;47.032;15.502;2024-01-25T07:56:07;4.43;;;1.20;;
32780;SDS011;19136;47.032;15.502;2024-01-25T07:58:34;4.00;;;0.80;;
32780;SDS011;19136;47.032;15.502;2024-01-25T08:00:59;2.38;;;0.68;;
32780;SDS011;19136;47.032;15.502;2024-01-25T08:03:27;1.92;;;0.70;;
32780;SDS011;19136;47.032;15.502;2024-01-25T08:05:52;0.43;;;0.30;;
32780;SDS011;19136;47.032;15.502;2024-01-25T08:08:18;2.53;;;0.60;;
32780;SDS011;19136;47.032;15.502;2024-01-25T08:10:43;2.50;;;1.00;;
32780;SDS011;19136;47.032;15.502;2024-01-25T08:13:11;2.58;;;1.13;;
32780;SDS011;19136;47.032;15.502;2024-01-25T08:15:36;2.70;;;1.02;;
32780;SDS011;19136;47.032;15.502;2024-01-25T08:18:02;3.53;;;1.98;;
32780;SDS011;19136;47.032;15.502;2024-01-25T08:20:27;10.00;;;0.90;;
32780;SDS011;19136;47.032;15.502;2024-01-25T08:22:53;3.65;;;0.70;;
32780;SDS011;19136;47.032;15.502;2024-01-25T08:25:18;2.65;;;0.60;;
32780;SDS011;19136;47.032;15.502;2024-01-25T08:27:45;2.00;;;1.02;;
32780;SDS011;19136;47.032;15.502;2024-01-25T08:30:11;2.17;;;0.75;;
32780;SDS011;19136;47.032;15.502;2024-01-25T08:32:37;2.30;;;0.90;;
32780;SDS011;19136;47.032;15.502;2024-01-25T08:35:02;5.38;;;1.45;;
32780;SDS011;19136;47.032;15.502;2024-01-25T08:37:28;1.92;;;0.60;;
32780;SDS011;19136;47.032;15.502;2024-01-25T08:39:54;1.67;;;0.40;;
32780;SDS011;19136;47.032;15.502;2024-01-25T08:42:19;1.80;;;0.40;;
32780;SDS011;19136;47.032;15.502;2024-01-25T08:44:46;3.85;;;1.88;;
32780;SDS011;19136;47.032;15.502;2024-01-25T08:47:15;2.25;;;0.75;;
32780;SDS011;19136;47.032;15.502;2024-01-25T08:49:40;3.90;;;1.85;;
32780;SDS011;19136;47.032;15.502;2024-01-25T08:52:06;4.65;;;1.20;;
32780;SDS011;19136;47.032;15.502;2024-01-25T08:54:32;3.00;;;1.63;;
32780;SDS011;19136;47.032;15.502;2024-01-25T08:56:57;1.52;;;0.43;;
32780;SDS011;19136;47.032;15.502;2024-01-25T08:59:23;2.55;;;0.40;;
32780;SDS011;19136;47.032;15.502;2024-01-25T09:01:48;0.52;;;0.20;;
32780;SDS011;19136;47.032;15.502;2024-01-25T09:04:14;1.05;;;0.38;;
32780;SDS011;19136;47.032;15.502;2024-01-25T09:06:40;2.95;;;0.47;;
32780;SDS011;19136;47.032;15.502;2024-01-25T09:09:06;1.05;;;0.28;;
32780;SDS011;19136;47.032;15.502;2024-01-25T09:11:31;1.42;;;0.30;;
32780;SDS011;19136;47.032;15.502;2024-01-25T09:13:57;2.67;;;0.70;;
32780;SDS011;19136;47.032;15.502;2024-01-25T09:16:22;5.65;;;0.40;;
32780;SDS011;19136;47.032;15.502;2024-01-25T09:18:48;1.17;;;0.30;;
32780;SDS011;19136;47.032;15.502;2024-01-25T09:21:13;5.28;;;1.35;;
32780;SDS011;19136;47.032;15.502;2024-01-25T09:23:39;4.35;;;0.65;;
32780;SDS011;19136;47.032;15.502;2024-01-25T09:26:04;5.85;;;0.68;;
32780;SDS011;19136;47.032;15.502;2024-01-25T09:28:30;2.28;;;0.85;;
32780;SDS011;19136;47.032;15.502;2024-01-25T09:30:55;1.85;;;0.50;;
32780;SDS011;19136;47.032;15.502;2024-01-25T09:33:21;2.22;;;0.50;;
32780;SDS011;19136;47.032;15.502;2024-01-25T09:35:46;1.40;;;0.40;;
32780;SDS011;19136;47.032;15.502;2024-01-25T09:38:12;2.65;;;0.40;;
32780;SDS011;19136;47.032;15.502;2024-01-25T09:40:38;3.28;;;0.55;;
32780;SDS011;19136;47.032;15.502;2024-01-25T09:43:03;3.10;;;0.63;;
32780;SDS011;19136;47.032;15.502;2024-01-25T09:45:29;5.43;;;0.63;;
32780;SDS011;19136;47.032;15.502;2024-01-25T09:47:56;4.78;;;1.70;;
32780;SDS011;19136;47.032;15.502;2024-01-25T09:50:21;2.08;;;0.73;;
32780;SDS011;19136;47.032;15.502;2024-01-25T09:52:49;2.15;;;0.70;;
32780;SDS011;19136;47.032;15.502;2024-01-25T09:55:16;2.75;;;0.73;;
32780;SDS011;19136;47.032;15.502;2024-01-25T09:57:45;3.10;;;0.90;;
32780;SDS011;19136;47.032;15.502;2024-01-25T10:00:12;4.72;;;0.50;;
32780;SDS011;19136;47.032;15.502;2024-01-25T10:02:38;6.38;;;0.98;;
32780;SDS011;19136;47.032;15.502;2024-01-25T10:05:03;6.65;;;1.10;;
32780;SDS011;19136;47.032;15.502;2024-01-25T10:07:36;5.35;;;0.85;;
32780;SDS011;19136;47.032;15.502;2024-01-25T10:10:02;6.85;;;1.00;;
32780;SDS011;19136;47.032;15.502;2024-01-25T10:12:29;2.75;;;0.80;;
32780;SDS011;19136;47.032;15.502;2024-01-25T10:14:54;3.50;;;0.68;;
32780;SDS011;19136;47.032;15.502;2024-01-25T10:17:20;4.43;;;1.48;;
32780;SDS011;19136;47.032;15.502;2024-01-25T10:19:48;4.53;;;0.98;;
32780;SDS011;19136;47.032;15.502;2024-01-25T10:22:14;4.13;;;0.77;;
32780;SDS011;19136;47.032;15.502;2024-01-25T10:24:39;4.13;;;0.80;;
32780;SDS011;19136;47.032;15.502;2024-01-25T10:27:05;5.35;;;0.90;;
32780;SDS011;19136;47.032;15.502;2024-01-25T10:29:34;4.70;;;0.93;;
32780;SDS011;19136;47.032;15.502;2024-01-25T10:32:02;5.65;;;1.13;;
32780;SDS011;19136;47.032;15.502;2024-01-25T10:34:27;8.27;;;1.92;;
32780;SDS011;19136;47.032;15.502;2024-01-25T10:36:54;6.93;;;2.00;;
32780;SDS011;19136;47.032;15.502;2024-01-25T10:39:20;3.80;;;1.20;;
32780;SDS011;19136;47.032;15.502;2024-01-25T10:41:49;5.10;;;1.55;;
32780;SDS011;19136;47.032;15.502;2024-01-25T10:44:19;8.93;;;2.13;;
32780;SDS011;19136;47.032;15.502;2024-01-25T10:46:48;10.00;;;1.45;;
32780;SDS011;19136;47.032;15.502;2024-01-25T10:49:13;4.95;;;1.40;;
32780;SDS011;19136;47.032;15.502;2024-01-25T10:51:42;8.07;;;1.23;;
32780;SDS011;19136;47.032;15.502;2024-01-25T10:54:08;4.38;;;1.08;;
32780;SDS011;19136;47.032;15.502;2024-01-25T10:56:52;7.15;;;1.70;;
32780;SDS011;19136;47.032;15.502;2024-01-25T10:59:17;13.50;;;3.40;;
32780;SDS011;19136;47.032;15.502;2024-01-25T11:01:44;11.77;;;4.22;;
32780;SDS011;19136;47.032;15.502;2024-01-25T11:04:17;5.20;;;1.50;;
32780;SDS011;19136;47.032;15.502;2024-01-25T11:06:45;24.10;;;8.40;;
32780;SDS011;19136;47.032;15.502;2024-01-25T11:09:16;15.00;;;4.75;;
32780;SDS011;19136;47.032;15.502;2024-01-25T11:11:43;30.40;;;9.15;;
32780;SDS011;19136;47.032;15.502;2024-01-25T11:14:11;9.93;;;3.95;;
32780;SDS011;19136;47.032;15.502;2024-01-25T11:16:36;20.85;;;7.20;;
32780;SDS011;19136;47.032;15.502;2024-01-25T11:19:07;6.22;;;1.90;;
32780;SDS011;19136;47.032;15.502;2024-01-25T11:21:42;8.43;;;2.40;;
32780;SDS011;19136;47.032;15.502;2024-01-25T11:24:12;9.52;;;1.65;;
32780;SDS011;19136;47.032;15.502;2024-01-25T11:26:38;10.48;;;3.85;;
32780;SDS011;19136;47.032;15.502;2024-01-25T11:29:07;15.70;;;6.50;;
32780;SDS011;19136;47.032;15.502;2024-01-25T11:31:33;10.40;;;2.67;;
32780;SDS011;19136;47.032;15.502;2024-01-25T11:34:02;12.45;;;5.45;;
32780;SDS011;19136;47.032;15.502;2024-01-25T11:36:27;8.30;;;1.75;;
32780;SDS011;19136;47.032;15.502;2024-01-25T11:38:53;8.13;;;2.47;;
32780;SDS011;19136;47.032;15.502;2024-01-25T11:41:19;4.43;;;1.10;;
32780;SDS011;19136;47.032;15.502;2024-01-25T11:43:44;6.55;;;1.13;;
32780;SDS011;19136;47.032;15.502;2024-01-25T11:46:10;4.95;;;1.10;;
32780;SDS011;19136;47.032;15.502;2024-01-25T11:48:39;10.30;;;3.05;;
32780;SDS011;19136;47.032;15.502;2024-01-25T11:51:06;5.15;;;1.98;;
32780;SDS011;19136;47.032;15.502;2024-01-25T11:53:31;4.35;;;1.88;;
32780;SDS011;19136;47.032;15.502;2024-01-25T11:55:56;10.30;;;1.77;;
32780;SDS011;19136;47.032;15.502;2024-01-25T11:58:22;10.85;;;4.25;;
32780;SDS011;19136;47.032;15.502;2024-01-25T12:00:48;6.32;;;2.17;;
32780;SDS011;19136;47.032;15.502;2024-01-25T12:03:14;6.35;;;2.45;;
32780;SDS011;19136;47.032;15.502;2024-01-25T12:05:39;11.73;;;3.83;;
32780;SDS011;19136;47.032;15.502;2024-01-25T12:08:10;6.25;;;1.52;;
32780;SDS011;19136;47.032;15.502;2024-01-25T12:10:40;6.07;;;1.10;;
32780;SDS011;19136;47.032;15.502;2024-01-25T12:13:07;4.95;;;1.30;;
32780;SDS011;19136;47.032;15.502;2024-01-25T12:15:32;5.97;;;1.58;;
32780;SDS011;19136;47.032;15.502;2024-01-25T12:17:58;4.22;;;2.10;;
32780;SDS011;19136;47.032;15.502;2024-01-25T12:20:26;6.72;;;1.65;;
32780;SDS011;19136;47.032;15.502;2024-01-25T12:22:51;11.50;;;1.65;;
32780;SDS011;19136;47.032;15.502;2024-01-25T12:25:17;9.15;;;2.80;;
32780;SDS011;19136;47.032;15.502;2024-01-25T12:27:42;13.95;;;5.20;;
32780;SDS011;19136;47.032;15.502;2024-01-25T12:30:08;8.85;;;2.38;;
32780;SDS011;19136;47.032;15.502;2024-01-25T12:32:36;8.88;;;3.00;;
32780;SDS011;19136;47.032;15.502;2024-01-25T12:35:04;10.02;;;3.75;;
32780;SDS011;19136;47.032;15.502;2024-01-25T12:37:30;11.98;;;2.53;;
32780;SDS011;19136;47.032;15.502;2024-01-25T12:39:55;6.70;;;1.83;;
32780;SDS011;19136;47.032;15.502;2024-01-25T12:42:21;9.07;;;3.13;;
32780;SDS011;19136;47.032;15.502;2024-01-25T12:44:48;10.18;;;3.28;;
32780;SDS011;19136;47.032;15.502;2024-01-25T12:47:13;8.77;;;2.17;;
32780;SDS011;19136;47.032;15.502;2024-01-25T12:49:42;4.20;;;1.30;;
32780;SDS011;19136;47.032;15.502;2024-01-25T12:52:08;7.47;;;2.67;;
32780;SDS011;19136;47.032;15.502;2024-01-25T12:54:34;6.78;;;2.70;;
32780;SDS011;19136;47.032;15.502;2024-01-25T12:56:59;7.28;;;1.63;;
32780;SDS011;19136;47.032;15.502;2024-01-25T12:59:25;9.02;;;2.40;;
32780;SDS011;19136;47.032;15.502;2024-01-25T13:01:50;8.38;;;2.13;;
32780;SDS011;19136;47.032;15.502;2024-01-25T13:04:16;8.05;;;2.33;;
32780;SDS011;19136;47.032;15.502;2024-01-25T13:06:41;10.00;;;1.90;;
32780;SDS011;19136;47.032;15.502;2024-01-25T13:09:07;10.88;;;1.80;;
32780;SDS011;19136;47.032;15.502;2024-01-25T13:11:33;11.85;;;1.60;;
32780;SDS011;19136;47.032;15.502;2024-01-25T13:13:58;13.35;;;2.50;;
32780;SDS011;19136;47.032;15.502;2024-01-25T13:16:24;7.93;;;2.17;;
32780;SDS011;19136;47.032;15.502;2024-01-25T13:18:49;12.70;;;4.82;;
32780;SDS011;19136;47.032;15.502;2024-01-25T13:21:15;11.80;;;3.35;;
32780;SDS011;19136;47.032;15.502;2024-01-25T13:23:40;10.30;;;2.00;;
32780;SDS011;19136;47.032;15.502;2024-01-25T13:26:06;8.10;;;2.33;;
32780;SDS011;19136;47.032;15.502;2024-01-25T13:28:31;9.77;;;1.70;;
32780;SDS011;19136;47.032;15.502;2024-01-25T13:30:57;10.25;;;2.50;;
32780;SDS011;19136;47.032;15.502;2024-01-25T13:33:24;8.32;;;2.83;;
32780;SDS011;19136;47.032;15.502;2024-01-25T13:35:49;8.43;;;1.80;;
32780;SDS011;19136;47.032;15.502;2024-01-25T13:38:15;6.40;;;1.98;;
32780;SDS011;19136;47.032;15.502;2024-01-25T13:40:41;5.93;;;1.55;;
32780;SDS011;19136;47.032;15.502;2024-01-25T13:43:07;8.75;;;2.08;;
32780;SDS011;19136;47.032;15.502;2024-01-25T13:45:32;5.70;;;1.60;;
32780;SDS011;19136;47.032;15.502;2024-01-25T13:47:58;13.82;;;2.60;;
32780;SDS011;19136;47.032;15.502;2024-01-25T13:50:23;10.20;;;2.30;;
32780;SDS011;19136;47.032;15.502;2024-01-25T13:52:49;6.43;;;1.80;;
32780;SDS011;19136;47.032;15.502;2024-01-25T13:55:14;13.07;;;2.45;;
32780;SDS011;19136;47.032;15.502;2024-01-25T13:57:40;10.02;;;2.33;;
32780;SDS011;19136;47.032;15.502;2024-01-25T14:00:05;11.98;;;4.30;;
32780;SDS011;19136;47.032;15.502;2024-01-25T14:02:31;9.93;;;3.17;;
32780;SDS011;19136;47.032;15.502;2024-01-25T14:04:57;5.88;;;1.90;;
32780;SDS011;19136;47.032;15.502;2024-01-25T14:07:23;9.25;;;3.72;;
32780;SDS011;19136;47.032;15.502;2024-01-25T14:09:49;11.38;;;3.33;;
32780;SDS011;19136;47.032;15.502;2024-01-25T14:12:14;14.57;;;5.25;;
32780;SDS011;19136;47.032;15.502;2024-01-25T14:14:39;17.90;;;6.78;;
32780;SDS011;19136;47.032;15.502;2024-01-25T14:17:05;11.25;;;3.60;;
32780;SDS011;19136;47.032;15.502;2024-01-25T14:19:30;5.70;;;1.75;;
32780;SDS011;19136;47.032;15.502;2024-01-25T14:21:56;12.35;;;4.35;;
32780;SDS011;19136;47.032;15.502;2024-01-25T14:24:21;7.68;;;2.60;;
32780;SDS011;19136;47.032;15.502;2024-01-25T14:26:47;6.25;;;1.45;;